createdAt,value
2023-02-07T00:10:48.180Z,43.53
2023-02-07T00:11:48.140Z,43.54
2023-02-07T00:12:48.184Z,43.51
2023-02-07T00:13:48.204Z,43.50
2023-02-07T00:14:48.242Z,43.51
2023-02-07T00:15:48.283Z,43.51
2023-02-07T00:16:48.418Z,43.49
2023-02-07T00:17:48.331Z,43.48
2023-02-07T00:18:48.385Z,43.48
2023-02-07T00:19:48.436Z,43.47
2023-02-07T00:20:48.465Z,43.49
2023-02-07T00:21:48.500Z,43.47
2023-02-07T00:22:48.606Z,43.46
2023-02-07T00:23:48.567Z,43.49
2023-02-07T00:24:48.598Z,43.51
2023-02-07T00:25:48.643Z,43.44
2023-02-07T00:26:48.677Z,43.48
2023-02-07T00:27:48.850Z,43.47
2023-02-07T00:28:48.775Z,43.48
2023-02-07T00:29:48.795Z,43.47
2023-02-07T00:30:48.908Z,43.45
2023-02-07T00:31:48.855Z,43.46
2023-02-07T00:32:48.884Z,43.47
2023-02-07T00:33:48.987Z,43.44
2023-02-07T00:34:48.953Z,43.45
2023-02-07T00:35:49.000Z,43.45
2023-02-07T00:36:49.040Z,43.45
2023-02-07T00:37:49.073Z,43.43
2023-02-07T00:38:49.093Z,43.45
2023-02-07T00:39:49.132Z,43.45
2023-02-07T00:40:49.182Z,43.46
2023-02-07T00:41:49.206Z,43.44
2023-02-07T00:42:49.242Z,43.42
2023-02-07T00:43:49.281Z,43.47
2023-02-07T00:44:49.309Z,43.46
2023-02-07T00:45:49.374Z,43.42
2023-02-07T00:46:49.369Z,43.42
2023-02-07T00:47:49.409Z,43.42
2023-02-07T00:48:49.438Z,43.44
2023-02-07T00:49:49.468Z,43.43
2023-02-07T00:50:49.512Z,43.40
2023-02-07T00:51:49.537Z,43.42
2023-02-07T00:52:49.576Z,43.43
2023-02-07T00:53:49.614Z,43.41
2023-02-07T00:54:49.659Z,43.41
2023-02-07T00:55:49.700Z,43.42
2023-02-07T00:56:49.728Z,43.41
2023-02-07T00:57:49.773Z,43.42
2023-02-07T00:58:51.031Z,43.40
2023-02-07T00:59:49.845Z,43.39
2023-02-07T01:00:49.897Z,43.40
2023-02-07T01:01:49.918Z,43.41
2023-02-07T01:02:49.962Z,43.40
2023-02-07T01:03:49.994Z,43.41
2023-02-07T01:04:50.093Z,43.38
2023-02-07T01:05:50.077Z,43.39
2023-02-07T01:06:50.135Z,43.39
2023-02-07T01:07:50.164Z,43.40
2023-02-07T01:08:50.202Z,43.41
2023-02-07T01:09:50.241Z,43.38
2023-02-07T01:10:50.276Z,43.37
2023-02-07T01:11:50.333Z,43.38
2023-02-07T01:12:50.350Z,43.37
2023-02-07T01:13:50.494Z,43.37
2023-02-07T01:14:50.439Z,43.35
2023-02-07T01:15:50.520Z,43.33
2023-02-07T01:16:50.516Z,43.34
2023-02-07T01:17:50.568Z,43.35
2023-02-07T01:18:50.615Z,43.35
2023-02-07T01:19:50.682Z,43.35
2023-02-07T01:20:50.697Z,43.36
2023-02-07T01:21:50.742Z,43.36
2023-02-07T01:22:50.784Z,43.32
2023-02-07T01:23:50.825Z,43.34
2023-02-07T01:24:50.863Z,43.34
2023-02-07T01:25:50.908Z,43.36
2023-02-07T01:26:50.958Z,43.36
2023-02-07T01:27:51.022Z,43.33
2023-02-07T01:28:51.042Z,43.34
2023-02-07T01:29:51.090Z,43.35
2023-02-07T01:30:51.272Z,43.34
2023-02-07T01:31:51.231Z,43.33
2023-02-07T01:32:51.300Z,43.33
2023-02-07T01:33:51.271Z,43.34
2023-02-07T01:34:51.329Z,43.32
2023-02-07T01:35:51.360Z,43.33
2023-02-07T01:36:52.241Z,43.28
2023-02-07T01:37:51.465Z,43.28
2023-02-07T01:38:51.508Z,43.32
2023-02-07T01:39:51.565Z,43.33
2023-02-07T01:40:51.603Z,43.31
2023-02-07T01:41:51.657Z,43.29
2023-02-07T01:42:51.723Z,43.30
2023-02-07T01:43:51.748Z,43.32
2023-02-07T01:44:51.816Z,43.27
2023-02-07T01:45:51.947Z,43.29
2023-02-07T01:46:51.890Z,43.29
2023-02-07T01:47:51.927Z,43.28
2023-02-07T01:48:52.049Z,43.29
2023-02-07T01:49:52.018Z,43.25
2023-02-07T01:50:52.064Z,43.28
2023-02-07T01:51:52.142Z,43.30
2023-02-07T01:52:52.157Z,43.27
2023-02-07T01:53:52.248Z,43.25
2023-02-07T01:54:52.239Z,43.25
2023-02-07T01:55:52.284Z,43.25
2023-02-07T01:56:52.328Z,43.25
2023-02-07T01:57:52.383Z,43.24
2023-02-07T01:58:52.429Z,43.25
2023-02-07T01:59:52.484Z,43.24
2023-02-07T02:00:52.530Z,43.25
2023-02-07T02:01:52.585Z,43.24
2023-02-07T02:02:52.693Z,43.25
2023-02-07T02:03:52.684Z,43.25
2023-02-07T02:04:52.727Z,43.26
2023-02-07T02:05:52.778Z,43.25
2023-02-07T02:06:52.819Z,43.23
2023-02-07T02:07:52.881Z,43.23
2023-02-07T02:08:52.920Z,43.22
2023-02-07T02:09:52.960Z,43.21
2023-02-07T02:10:53.000Z,43.23
2023-02-07T02:11:53.046Z,43.21
2023-02-07T02:12:53.098Z,43.20
2023-02-07T02:13:53.157Z,43.22
2023-02-07T02:14:53.207Z,43.19
2023-02-07T02:15:53.285Z,43.21
2023-02-07T02:16:53.294Z,43.18
2023-02-07T02:17:53.339Z,43.17
2023-02-07T02:18:53.384Z,43.16
2023-02-07T02:19:53.438Z,43.13
2023-02-07T02:20:53.477Z,43.13
2023-02-07T02:21:53.509Z,43.15
2023-02-07T02:22:53.541Z,43.12
2023-02-07T02:23:53.587Z,43.09
2023-02-07T02:24:53.622Z,43.08
2023-02-07T02:25:53.656Z,43.09
2023-02-07T02:26:53.704Z,43.07
2023-02-07T02:27:53.770Z,43.04
2023-02-07T02:28:53.781Z,43.02
2023-02-07T02:29:53.805Z,43.01
2023-02-07T02:30:53.922Z,43.01
2023-02-07T02:31:53.886Z,42.95
2023-02-07T02:32:53.894Z,42.95
2023-02-07T02:33:53.947Z,42.92
2023-02-07T02:34:53.964Z,42.92
2023-02-07T02:35:53.997Z,42.92
2023-02-07T02:36:54.018Z,42.88
2023-02-07T02:37:54.041Z,42.88
2023-02-07T02:38:54.061Z,42.84
2023-02-07T02:39:54.094Z,42.82
2023-02-07T02:40:54.195Z,42.82
2023-02-07T02:41:54.139Z,42.80
2023-02-07T02:42:54.167Z,42.78
2023-02-07T02:43:54.178Z,42.75
2023-02-07T02:44:54.202Z,42.77
2023-02-07T02:45:54.216Z,42.74
2023-02-07T02:46:54.242Z,42.75
2023-02-07T02:47:54.260Z,42.73
2023-02-07T02:48:54.281Z,42.72
2023-02-07T02:49:55.196Z,42.70
2023-02-07T02:50:54.307Z,42.69
2023-02-07T02:51:54.337Z,42.66
2023-02-07T02:52:54.345Z,42.67
2023-02-07T02:53:54.367Z,42.64
2023-02-07T02:54:54.373Z,42.63
2023-02-07T02:55:54.399Z,42.61
2023-02-07T02:56:54.412Z,42.61
2023-02-07T02:57:54.443Z,42.61
2023-02-07T02:58:54.566Z,42.58
2023-02-07T04:54:55.054Z,42.01
2023-02-07T05:03:55.129Z,41.94
2023-02-07T05:04:55.159Z,41.97
2023-02-07T05:05:55.164Z,41.97
2023-02-07T05:06:55.181Z,41.95
2023-02-07T05:07:55.171Z,41.93
2023-02-07T05:08:55.180Z,41.95
2023-02-07T05:09:55.214Z,41.97
2023-02-07T05:10:55.239Z,41.95
2023-02-07T05:12:55.225Z,41.93
2023-02-07T05:13:55.199Z,41.92
2023-02-07T05:14:55.216Z,41.91
2023-02-07T05:15:55.225Z,41.91
2023-02-07T05:16:55.279Z,41.92
2023-02-07T05:17:55.227Z,41.92
2023-02-07T05:19:55.271Z,41.89
2023-02-07T05:20:55.274Z,41.89
2023-02-07T05:21:55.249Z,41.89
2023-02-07T05:22:55.272Z,41.88
2023-02-07T05:23:55.269Z,41.89
2023-02-07T05:24:55.291Z,41.89
2023-02-07T05:25:55.312Z,41.89
2023-02-07T05:26:55.290Z,41.88
2023-02-07T07:21:58.152Z,45.54
2023-02-07T07:22:58.193Z,45.80
2023-02-07T07:23:58.768Z,45.57
2023-02-07T07:24:58.314Z,45.57
2023-02-07T07:25:58.336Z,45.56
2023-02-07T07:33:58.756Z,45.66
2023-02-07T08:24:59.285Z,45.35
2023-02-07T08:25:59.290Z,45.40
2023-02-07T08:26:59.315Z,45.64
2023-02-07T08:27:59.339Z,45.73
2023-02-07T08:28:59.331Z,45.80
2023-02-07T08:29:59.315Z,46.09
2023-02-07T08:30:59.315Z,46.10
2023-02-07T08:31:59.443Z,46.25
2023-02-07T08:32:59.380Z,46.57
2023-02-07T08:33:59.436Z,46.72
2023-02-07T12:24:02.546Z,41.09
2023-02-07T12:30:02.579Z,40.85
2023-02-07T13:16:01.728Z,40.02
2023-02-07T13:26:01.460Z,39.99
2023-02-07T13:27:01.426Z,40.01
2023-02-07T13:28:01.490Z,40.00
2023-02-07T13:29:01.380Z,39.99
2023-02-07T13:30:01.371Z,39.99
2023-02-07T13:31:01.333Z,40.00
2023-02-07T13:32:01.433Z,39.98
2023-02-07T13:33:01.260Z,39.99
2023-02-07T13:34:02.413Z,39.99
2023-02-07T13:35:01.222Z,39.99
2023-02-07T13:36:01.203Z,40.01
2023-02-07T13:37:11.226Z,40.02
2023-02-07T13:39:01.861Z,40.00
2023-02-07T13:40:01.030Z,39.99
2023-02-07T13:41:00.933Z,40.04
2023-02-07T13:42:00.876Z,40.01
2023-02-07T13:43:00.838Z,40.04
2023-02-07T13:44:09.923Z,40.05
2023-02-07T13:45:01.869Z,40.03
2023-02-07T13:46:00.871Z,40.05
2023-02-07T13:47:00.815Z,40.04
2023-02-07T13:48:00.791Z,39.99
2023-02-07T13:49:00.769Z,40.00
2023-02-07T13:50:00.795Z,40.02
2023-02-07T13:51:00.742Z,40.02
2023-02-07T13:52:00.813Z,40.04
2023-02-07T13:53:01.443Z,40.05
2023-02-07T13:54:00.738Z,40.10
2023-02-07T13:55:00.741Z,40.09
2023-02-07T13:56:00.725Z,40.11
2023-02-07T13:57:00.727Z,40.13
2023-02-07T13:58:00.731Z,40.16
2023-02-07T13:59:00.822Z,40.17
2023-02-07T14:25:00.619Z,40.89
2023-02-07T14:26:00.599Z,40.94
2023-02-07T14:27:00.559Z,40.95
2023-02-07T14:28:00.583Z,41.00
2023-02-07T14:29:00.510Z,41.03
2023-02-07T14:30:00.462Z,41.05
2023-02-07T14:31:00.529Z,41.09
2023-02-07T14:32:00.604Z,41.10
2023-02-07T14:33:00.381Z,41.11
2023-02-07T14:34:00.356Z,41.13
2023-02-07T14:35:00.352Z,41.18
2023-02-07T14:36:00.378Z,41.20
2023-02-07T14:37:00.316Z,41.22
2023-02-07T14:38:00.301Z,41.26
2023-02-07T14:39:00.289Z,41.30
2023-02-07T14:40:00.617Z,41.31
2023-02-07T14:41:10.001Z,41.35
2023-02-07T14:42:01.241Z,41.39
2023-02-07T14:43:00.200Z,41.45
2023-02-07T14:44:08.999Z,41.48
2023-02-07T14:45:01.124Z,41.55
2023-02-07T14:46:00.128Z,41.48
2023-02-07T14:47:00.041Z,41.31
2023-02-07T14:48:00.019Z,41.15
2023-02-07T14:48:59.969Z,40.64
2023-02-07T14:49:59.943Z,40.22
2023-02-07T14:50:59.973Z,39.94
2023-02-07T14:51:59.904Z,39.48
2023-02-07T14:52:59.844Z,38.94
2023-02-07T14:53:59.839Z,38.40
2023-02-07T14:54:59.781Z,38.38
2023-02-07T14:55:59.758Z,38.22
2023-02-07T14:56:59.792Z,38.21
2023-02-07T14:57:59.829Z,38.22
2023-02-07T14:58:59.841Z,38.23
2023-02-07T14:59:59.881Z,38.24
2023-02-07T15:00:59.930Z,38.29
2023-02-07T15:01:59.950Z,38.34
2023-02-07T15:03:00.066Z,38.36
2023-02-07T15:04:00.124Z,38.39
2023-02-07T15:05:00.090Z,38.40
2023-02-07T15:06:00.136Z,38.45
2023-02-07T15:07:00.252Z,38.47
2023-02-07T15:08:00.195Z,38.51
2023-02-07T15:09:00.247Z,38.54
2023-02-07T15:10:00.304Z,38.61
2023-02-07T15:11:00.519Z,38.66
2023-02-07T15:12:08.740Z,38.66
2023-02-07T15:13:01.380Z,38.71
2023-02-07T15:14:00.332Z,38.77
2023-02-07T15:15:00.375Z,38.76
2023-02-07T15:16:00.350Z,38.82
2023-02-07T15:17:00.272Z,38.84
2023-02-07T15:18:00.255Z,38.87
2023-02-07T15:19:00.232Z,38.91
2023-02-07T15:20:00.230Z,38.93
2023-02-07T15:21:00.230Z,38.94
2023-02-07T15:22:00.193Z,38.98
2023-02-07T15:23:00.171Z,39.00
2023-02-07T15:24:00.140Z,39.05
2023-02-07T15:25:00.146Z,39.05
2023-02-07T15:26:00.118Z,39.07
2023-02-07T15:27:00.090Z,39.10
2023-02-07T15:28:00.131Z,39.14
2023-02-07T15:29:00.039Z,39.18
2023-02-07T15:30:00.021Z,39.17
2023-02-07T15:31:00.123Z,39.24
2023-02-07T15:32:00.161Z,39.25
2023-02-07T15:32:59.974Z,39.27
2023-02-07T15:33:59.944Z,39.30
2023-02-07T15:34:59.932Z,39.33
2023-02-07T15:35:59.923Z,39.36
2023-02-07T15:36:59.923Z,39.37
2023-02-07T15:37:59.945Z,39.40
2023-02-07T15:38:59.931Z,39.45
2023-02-07T15:39:59.988Z,39.43
2023-02-07T15:40:59.977Z,39.49
2023-02-07T15:41:59.962Z,39.51
2023-02-07T15:42:59.976Z,39.52
2023-02-07T15:43:59.996Z,39.54
2023-02-07T15:45:00.008Z,39.56
2023-02-07T15:46:00.038Z,39.58
2023-02-07T15:47:00.493Z,39.60
2023-02-07T15:48:00.109Z,39.63
2023-02-07T15:49:00.105Z,39.64
2023-02-07T15:50:00.139Z,39.68
2023-02-07T15:51:00.137Z,39.70
2023-02-07T15:52:00.168Z,39.72
2023-02-07T15:53:00.989Z,39.74
2023-02-07T15:54:00.208Z,39.79
2023-02-07T15:55:00.504Z,39.80
2023-02-07T15:56:00.260Z,39.80
2023-02-07T15:57:00.297Z,39.84
2023-02-07T15:58:00.307Z,39.82
2023-02-07T15:59:00.336Z,39.88
2023-02-07T16:00:00.433Z,39.87
2023-02-07T16:01:00.399Z,39.92
2023-02-07T16:02:00.440Z,39.93
2023-02-07T16:03:00.553Z,39.94
2023-02-07T16:04:00.496Z,39.94
2023-02-07T16:05:00.533Z,39.96
2023-02-07T16:06:00.547Z,40.01
2023-02-07T16:07:00.594Z,40.05
2023-02-07T16:08:00.643Z,40.05
2023-02-07T16:09:00.651Z,40.08
2023-02-07T16:10:00.688Z,40.07
2023-02-07T16:12:00.758Z,40.13
2023-02-07T16:13:00.861Z,40.14
2023-02-07T16:14:00.816Z,40.12
2023-02-07T16:15:01.507Z,40.14
2023-02-07T16:16:00.930Z,40.14
2023-02-07T16:17:00.950Z,40.18
2023-02-07T16:18:01.009Z,40.17
2023-02-07T16:19:01.026Z,40.21
2023-02-07T16:20:01.080Z,40.20
2023-02-07T16:21:01.108Z,40.21
2023-02-07T16:22:01.163Z,40.22
2023-02-07T16:23:01.203Z,40.24
2023-02-07T16:24:01.254Z,40.24
2023-02-07T16:25:01.310Z,40.28
2023-02-07T16:26:01.348Z,40.27
2023-02-07T16:27:01.404Z,40.28
2023-02-07T16:28:01.511Z,40.29
2023-02-07T16:29:01.509Z,40.32
2023-02-07T16:30:01.598Z,40.36
2023-02-07T19:44:08.134Z,40.92
2023-02-07T19:45:08.196Z,40.89
2023-02-07T19:46:08.258Z,40.90
2023-02-07T19:47:08.244Z,40.92
2023-02-07T19:48:08.291Z,40.90
2023-02-07T19:49:10.615Z,40.88
2023-02-07T19:50:08.325Z,40.90
2023-02-07T19:51:08.324Z,40.87
2023-02-07T19:52:08.325Z,40.88
2023-02-07T19:53:08.323Z,40.87
2023-02-07T19:54:08.314Z,40.91
2023-02-07T19:55:08.322Z,40.86
2023-02-07T19:56:08.298Z,40.89
2023-02-07T19:57:08.311Z,40.89
2023-02-07T19:58:08.304Z,40.87
2023-02-07T19:59:08.310Z,40.83
2023-02-07T20:00:08.302Z,40.81
2023-02-07T20:01:08.369Z,40.85
2023-02-07T20:02:08.306Z,40.85
2023-02-07T20:08:08.293Z,40.82
2023-02-07T20:09:08.294Z,40.82
2023-02-07T20:10:08.289Z,40.81
2023-02-07T20:11:08.308Z,40.81
2023-02-07T20:12:08.297Z,40.83
2023-02-07T20:13:08.348Z,40.81
2023-02-07T20:14:08.293Z,40.83
2023-02-07T20:15:08.295Z,40.81
2023-02-07T20:17:08.299Z,40.82
2023-02-07T20:18:08.308Z,40.83
2023-02-07T20:20:08.290Z,40.82
2023-02-07T20:21:11.499Z,40.83
2023-02-07T20:22:08.305Z,40.82
2023-02-07T20:23:08.302Z,40.81
2023-02-07T20:24:08.296Z,40.80
2023-02-07T20:25:08.295Z,40.79
2023-02-07T20:26:08.311Z,40.83
2023-02-07T20:27:08.297Z,40.81
2023-02-07T20:28:08.407Z,40.78
2023-02-07T20:29:08.319Z,40.81
2023-02-07T20:30:08.309Z,40.79
2023-02-07T20:31:08.407Z,40.77
2023-02-07T20:32:08.297Z,40.80
2023-02-07T20:33:08.292Z,40.78
2023-02-07T20:34:08.303Z,40.77
2023-02-07T20:35:08.287Z,40.78
2023-02-07T20:36:08.293Z,40.77
2023-02-07T20:37:08.301Z,40.77
2023-02-07T20:38:08.319Z,40.78
2023-02-07T20:39:08.303Z,40.79
2023-02-07T20:40:08.369Z,40.79
2023-02-07T20:41:08.371Z,40.78
2023-02-07T20:42:09.021Z,40.77
2023-02-07T20:43:08.274Z,40.77
2023-02-07T20:44:08.273Z,40.77
2023-02-07T20:45:08.285Z,40.75
2023-02-07T20:46:08.275Z,40.76
2023-02-07T20:47:08.270Z,40.77
2023-02-07T20:48:08.269Z,40.76
2023-02-07T20:49:08.276Z,40.74
2023-02-07T20:50:08.252Z,40.77
2023-02-07T20:51:08.255Z,40.74
2023-02-07T20:52:08.251Z,40.75
2023-02-07T20:53:08.293Z,40.75
2023-02-07T20:54:08.263Z,40.74
2023-02-07T20:55:08.262Z,40.74
2023-02-07T20:56:08.241Z,40.75
2023-02-07T20:57:08.245Z,40.75
2023-02-07T20:58:08.259Z,40.72
2023-02-07T20:59:08.252Z,40.74
2023-02-07T21:00:08.262Z,40.73
2023-02-07T21:01:08.305Z,40.76
2023-02-07T21:02:08.297Z,40.76
2023-02-07T21:03:08.250Z,40.74
2023-02-07T21:04:08.319Z,40.78
2023-02-07T21:05:08.257Z,40.78
2023-02-07T21:06:08.336Z,40.77
2023-02-07T21:07:08.265Z,40.78
2023-02-07T21:08:08.272Z,40.78
2023-02-07T21:09:08.259Z,40.80
2023-02-07T21:10:08.270Z,40.79
2023-02-07T21:11:08.275Z,40.79
2023-02-07T21:12:08.264Z,40.79
2023-02-07T21:13:08.268Z,40.82
2023-02-07T21:14:08.267Z,40.83
2023-02-07T21:15:08.293Z,40.80
2023-02-07T21:16:08.433Z,40.83
2023-02-07T21:17:08.290Z,40.81
2023-02-07T21:18:08.302Z,40.81
2023-02-07T21:19:08.293Z,40.79
2023-02-07T21:20:08.311Z,40.79
2023-02-07T21:21:08.312Z,40.80
2023-02-07T21:22:08.319Z,40.78
2023-02-07T21:23:08.340Z,40.77
2023-02-07T21:24:08.462Z,40.78
2023-02-07T21:25:08.396Z,40.79
2023-02-07T21:26:08.436Z,40.76
2023-02-07T21:27:08.477Z,40.78
2023-02-07T21:28:08.534Z,40.76
2023-02-07T21:29:08.542Z,40.76
2023-02-07T21:30:08.587Z,40.75
2023-02-07T21:31:08.723Z,40.78
2023-02-07T21:32:08.721Z,40.75
2023-02-07T21:33:08.667Z,40.75
2023-02-07T21:34:08.706Z,40.77
2023-02-07T21:35:08.748Z,40.77
2023-02-07T21:36:08.771Z,40.78
2023-02-07T21:37:08.823Z,40.78
2023-02-07T21:38:08.844Z,40.79
2023-02-07T21:39:08.885Z,40.77
2023-02-07T21:40:08.930Z,40.79
2023-02-07T21:41:08.971Z,40.76
2023-02-07T21:42:09.026Z,40.78
2023-02-07T21:43:09.049Z,40.81
2023-02-07T21:44:09.089Z,40.77
2023-02-07T21:45:09.120Z,40.78
2023-02-07T21:46:09.203Z,40.75
2023-02-07T21:47:09.206Z,40.75
2023-02-07T21:48:09.231Z,40.74
2023-02-07T21:49:09.256Z,40.75
2023-02-07T21:50:09.304Z,40.76
2023-02-07T21:51:09.341Z,40.75
2023-02-07T21:52:09.375Z,40.76
2023-02-07T21:53:09.413Z,40.77
2023-02-07T21:54:09.468Z,40.75
2023-02-07T21:55:09.507Z,40.75
2023-02-07T21:56:10.122Z,40.76
2023-02-07T21:57:09.627Z,40.77
2023-02-07T21:58:09.761Z,40.78
2023-02-07T21:59:09.711Z,40.77
2023-02-07T22:00:09.754Z,40.79
2023-02-07T22:01:09.807Z,40.77
2023-02-07T22:02:09.870Z,40.77
2023-02-07T22:03:09.881Z,40.79
2023-02-07T22:04:09.942Z,40.78
2023-02-07T22:05:09.988Z,40.79
2023-02-07T22:06:10.034Z,40.76
2023-02-07T22:07:10.091Z,40.79
2023-02-07T22:08:10.121Z,40.78
2023-02-07T22:09:10.176Z,40.77
2023-02-07T22:10:10.209Z,40.81
2023-02-07T22:11:10.301Z,40.80
2023-02-07T22:12:10.307Z,40.79
2023-02-07T22:13:10.353Z,40.78
2023-02-07T22:14:10.397Z,40.78
2023-02-07T22:15:10.439Z,40.76
2023-02-07T22:16:10.531Z,40.79
2023-02-07T22:17:10.544Z,40.75
2023-02-07T22:18:10.590Z,40.75
2023-02-07T22:19:11.139Z,40.76
2023-02-07T22:20:10.674Z,40.78
2023-02-07T22:21:10.722Z,40.76
2023-02-07T22:22:10.763Z,40.77
2023-02-07T22:23:10.887Z,40.76
2023-02-07T22:24:10.865Z,40.79
2023-02-07T22:25:10.911Z,40.75
2023-02-07T22:26:10.972Z,40.78
2023-02-07T22:27:11.008Z,40.76
2023-02-07T22:28:11.109Z,40.77
2023-02-07T22:29:11.116Z,40.75
2023-02-07T22:30:11.176Z,40.77
2023-02-07T22:31:11.316Z,40.79
2023-02-07T22:32:11.357Z,40.81
2023-02-07T22:33:11.320Z,40.79
2023-02-07T22:34:11.377Z,40.80
